createdAt,value
2018-07-17T00:00:10.746Z,7.20
2018-07-17T00:02:39.243Z,6.03
2018-07-17T00:05:08.426Z,6.40
2018-07-17T00:07:36.818Z,6.12
2018-07-17T00:10:05.451Z,6.30
2018-07-17T00:12:33.537Z,6.00
2018-07-17T00:15:02.311Z,6.62
2018-07-17T00:17:30.410Z,6.15
2018-07-17T00:19:58.463Z,5.83
2018-07-17T00:22:26.590Z,5.80
2018-07-17T00:24:54.889Z,5.30
2018-07-17T00:27:23.594Z,5.90
2018-07-17T00:29:51.747Z,5.92
2018-07-17T00:32:19.878Z,5.90
2018-07-17T00:34:48.630Z,6.50
2018-07-17T00:37:17.105Z,6.33
2018-07-17T00:39:45.246Z,6.55
2018-07-17T00:42:13.559Z,6.12
2018-07-17T00:44:41.700Z,6.33
2018-07-17T00:47:09.861Z,6.30
2018-07-17T00:49:38.489Z,6.28
2018-07-17T00:52:06.985Z,6.30
2018-07-17T00:54:35.829Z,6.30
2018-07-17T00:57:03.906Z,5.83
2018-07-17T00:59:32.076Z,5.90
2018-07-17T01:02:05.773Z,5.95
2018-07-17T01:04:39.326Z,6.30
2018-07-17T01:07:12.971Z,6.40
2018-07-17T01:09:46.530Z,5.90
2018-07-17T01:12:14.134Z,5.60
2018-07-17T01:14:51.901Z,5.95
2018-07-17T01:17:20.525Z,5.97
2018-07-17T01:19:49.052Z,5.78
2018-07-17T01:22:17.526Z,6.00
2018-07-17T01:24:46.006Z,5.80
2018-07-17T01:27:14.359Z,5.65
2018-07-17T01:29:42.710Z,5.90
2018-07-17T01:32:11.082Z,6.40
2018-07-17T01:34:39.295Z,6.17
2018-07-17T01:37:07.598Z,6.37
2018-07-17T01:39:35.811Z,6.60
2018-07-17T01:42:03.954Z,5.92
2018-07-17T01:44:32.767Z,6.12
2018-07-17T01:47:01.253Z,6.03
2018-07-17T01:49:30.214Z,6.00
2018-07-17T01:51:59.000Z,6.70
2018-07-17T01:54:27.506Z,6.45
2018-07-17T01:56:55.962Z,6.00
2018-07-17T01:59:24.410Z,5.70
2018-07-17T02:01:52.457Z,6.53
2018-07-17T02:04:21.405Z,5.97
2018-07-17T02:06:50.642Z,6.57
2018-07-17T02:09:19.405Z,6.50
2018-07-17T02:11:47.679Z,6.40
2018-07-17T02:14:16.042Z,6.15
2018-07-17T02:16:44.563Z,5.80
2018-07-17T02:19:12.877Z,5.97
2018-07-17T02:21:41.147Z,6.70
2018-07-17T02:24:09.557Z,6.05
2018-07-17T02:26:37.567Z,6.90
2018-07-17T02:29:05.710Z,6.00
2018-07-17T02:31:34.654Z,7.10
2018-07-17T02:34:03.387Z,6.70
2018-07-17T02:36:31.846Z,6.30
2018-07-17T02:39:00.492Z,6.15
2018-07-17T02:41:28.702Z,6.40
2018-07-17T02:43:56.784Z,6.90
2018-07-17T02:46:25.276Z,6.37
2018-07-17T02:48:53.538Z,6.30
2018-07-17T02:51:22.061Z,6.60
2018-07-17T02:53:50.417Z,6.60
2018-07-17T02:56:19.086Z,7.40
2018-07-17T02:58:47.182Z,7.85
2018-07-17T03:01:15.914Z,7.90
2018-07-17T03:03:44.145Z,6.90
2018-07-17T03:06:12.531Z,7.47
2018-07-17T03:08:41.630Z,6.78
2018-07-17T03:11:10.107Z,7.20
2018-07-17T03:13:39.285Z,6.55
2018-07-17T03:16:07.529Z,7.50
2018-07-17T03:18:35.862Z,7.75
2018-07-17T03:21:04.547Z,7.07
2018-07-17T03:23:32.674Z,7.10
2018-07-17T03:26:01.415Z,6.97
2018-07-17T03:28:29.686Z,7.23
2018-07-17T03:30:58.168Z,6.90
2018-07-17T03:33:26.218Z,7.00
2018-07-17T03:35:54.797Z,7.10
2018-07-17T03:38:23.543Z,7.17
2018-07-17T03:40:51.989Z,7.30
2018-07-17T03:43:20.899Z,7.05
2018-07-17T03:45:49.266Z,6.95
2018-07-17T03:48:17.712Z,6.75
2018-07-17T03:50:46.330Z,7.70
2018-07-17T03:53:14.875Z,7.60
2018-07-17T03:55:43.305Z,7.15
2018-07-17T03:58:11.810Z,7.50
2018-07-17T04:00:40.352Z,6.80
2018-07-17T04:03:08.426Z,7.17
2018-07-17T04:05:37.322Z,6.62
2018-07-17T04:08:05.554Z,6.50
2018-07-17T04:10:33.645Z,6.90
2018-07-17T04:13:01.659Z,6.80
2018-07-17T04:15:29.818Z,7.00
2018-07-17T04:17:58.393Z,7.12
2018-07-17T04:20:26.774Z,6.60
2018-07-17T04:22:55.164Z,6.83
2018-07-17T04:25:23.197Z,7.20
2018-07-17T04:27:51.909Z,6.50
2018-07-17T04:30:19.916Z,6.33
2018-07-17T04:32:48.457Z,7.60
2018-07-17T04:35:16.494Z,6.60
2018-07-17T04:37:44.658Z,6.80
2018-07-17T04:40:12.905Z,6.30
2018-07-17T04:42:40.993Z,6.60
2018-07-17T04:45:09.030Z,6.60
2018-07-17T04:47:37.619Z,6.40
2018-07-17T04:50:05.910Z,6.08
2018-07-17T04:52:34.369Z,7.00
2018-07-17T04:55:02.583Z,6.20
2018-07-17T04:57:31.133Z,6.97
2018-07-17T04:59:59.818Z,6.33
2018-07-17T05:02:27.885Z,6.40
2018-07-17T05:04:56.185Z,5.70
2018-07-17T05:07:24.453Z,6.65
2018-07-17T05:09:52.685Z,6.30
2018-07-17T05:12:21.412Z,6.67
2018-07-17T05:14:49.662Z,5.70
2018-07-17T05:17:18.182Z,6.30
2018-07-17T05:19:46.325Z,6.30
2018-07-17T05:22:14.408Z,6.30
2018-07-17T05:24:42.754Z,6.10
2018-07-17T05:27:11.028Z,6.12
2018-07-17T05:29:39.549Z,6.10
2018-07-17T05:32:07.740Z,6.33
2018-07-17T05:34:35.901Z,8.18
2018-07-17T05:37:04.716Z,9.40
2018-07-17T05:39:32.894Z,9.60
2018-07-17T05:44:07.910Z,9.50
2018-07-17T05:46:36.134Z,8.90
2018-07-17T05:49:04.366Z,9.18
2018-07-17T05:51:32.950Z,8.38
2018-07-17T05:54:00.973Z,8.50
2018-07-17T05:56:29.123Z,7.20
2018-07-17T05:58:57.401Z,7.70
2018-07-17T06:01:25.849Z,7.65
2018-07-17T06:03:54.034Z,8.27
2018-07-17T06:06:22.261Z,11.33
2018-07-17T06:08:50.761Z,10.70
2018-07-17T06:11:19.369Z,7.97
2018-07-17T06:13:47.646Z,7.35
2018-07-17T06:16:16.334Z,7.03
2018-07-17T06:18:45.221Z,7.00
2018-07-17T06:21:13.810Z,7.80
2018-07-17T06:23:42.674Z,8.18
2018-07-17T06:26:11.185Z,8.50
2018-07-17T06:28:39.252Z,7.97
2018-07-17T06:31:07.373Z,7.03
2018-07-17T06:33:35.887Z,7.60
2018-07-17T06:36:04.926Z,6.87
2018-07-17T06:38:33.088Z,6.75
2018-07-17T06:41:01.535Z,6.63
2018-07-17T06:43:29.827Z,6.40
2018-07-17T06:45:58.285Z,5.95
2018-07-17T06:48:27.046Z,6.87
2018-07-17T06:50:55.590Z,5.53
2018-07-17T06:53:24.557Z,6.85
2018-07-17T06:55:52.575Z,7.53
2018-07-17T06:58:20.658Z,6.10
2018-07-17T07:00:49.222Z,7.30
2018-07-17T07:03:17.698Z,7.17
2018-07-17T07:05:46.962Z,6.40
2018-07-17T07:08:15.661Z,6.12
2018-07-17T07:10:43.955Z,6.22
2018-07-17T07:13:12.433Z,6.70
2018-07-17T07:15:41.222Z,7.00
2018-07-17T07:18:09.885Z,6.58
2018-07-17T07:20:38.042Z,6.05
2018-07-17T07:23:06.605Z,6.47
2018-07-17T07:25:34.638Z,6.43
2018-07-17T07:28:02.929Z,6.75
2018-07-17T07:30:31.303Z,6.97
2018-07-17T07:32:59.467Z,6.10
2018-07-17T07:35:28.344Z,6.70
2018-07-17T07:37:56.854Z,6.60
2018-07-17T07:40:25.154Z,6.40
2018-07-17T07:42:53.341Z,5.62
2018-07-17T07:45:21.331Z,6.08
2018-07-17T07:47:49.717Z,6.45
2018-07-17T07:50:18.256Z,5.90
2018-07-17T07:52:46.758Z,6.17
2018-07-17T07:55:15.223Z,5.53
2018-07-17T07:57:43.669Z,6.00
2018-07-17T08:00:12.154Z,5.70
2018-07-17T08:02:40.902Z,5.83
2018-07-17T08:05:09.629Z,5.25
2018-07-17T08:07:37.890Z,5.60
2018-07-17T08:10:06.794Z,5.30
2018-07-17T08:12:34.893Z,5.10
2018-07-17T08:15:03.049Z,5.20
2018-07-17T08:17:31.778Z,4.87
2018-07-17T08:19:59.962Z,4.70
2018-07-17T08:22:27.955Z,4.90
2018-07-17T08:24:56.286Z,4.37
2018-07-17T08:27:25.019Z,4.67
2018-07-17T08:29:53.163Z,4.00
2018-07-17T08:32:21.708Z,5.08
2018-07-17T08:34:49.903Z,4.28
2018-07-17T08:37:18.052Z,4.90
2018-07-17T08:39:46.093Z,4.45
2018-07-17T08:42:14.607Z,5.10
2018-07-17T08:44:43.083Z,4.70
2018-07-17T08:47:12.182Z,4.28
2018-07-17T08:49:40.359Z,5.00
2018-07-17T08:52:08.541Z,4.97
2018-07-17T08:54:36.995Z,4.20
2018-07-17T08:57:05.074Z,4.00
2018-07-17T08:59:33.159Z,3.92
2018-07-17T09:02:01.344Z,4.33
2018-07-17T09:04:29.761Z,3.42
2018-07-17T09:06:58.042Z,3.60
2018-07-17T09:09:25.964Z,3.80
2018-07-17T09:11:54.223Z,3.40
2018-07-17T09:14:22.673Z,3.95
2018-07-17T09:16:50.678Z,3.90
2018-07-17T09:19:18.840Z,3.17
2018-07-17T09:21:47.016Z,3.17
2018-07-17T09:24:15.401Z,3.60
2018-07-17T09:26:43.612Z,3.50
2018-07-17T09:29:11.749Z,3.72
2018-07-17T09:31:39.716Z,3.50
2018-07-17T09:34:07.765Z,3.60
2018-07-17T09:36:36.377Z,3.40
2018-07-17T09:39:05.827Z,3.90
2018-07-17T09:41:33.744Z,4.03
2018-07-17T09:44:01.683Z,3.40
2018-07-17T09:46:30.185Z,3.25
2018-07-17T09:48:58.164Z,3.70
2018-07-17T09:51:26.853Z,3.60
2018-07-17T09:53:54.818Z,3.40
2018-07-17T09:56:22.865Z,3.30
2018-07-17T09:58:50.756Z,3.40
2018-07-17T10:01:24.147Z,3.70
2018-07-17T10:03:52.844Z,3.40
2018-07-17T10:06:21.033Z,3.10
2018-07-17T10:08:49.163Z,3.27
2018-07-17T10:11:17.130Z,3.08
2018-07-17T10:13:45.340Z,3.22
2018-07-17T10:16:13.341Z,2.75
2018-07-17T10:18:41.535Z,2.72
2018-07-17T10:21:09.969Z,2.90
2018-07-17T10:23:38.084Z,3.10
2018-07-17T10:26:05.980Z,2.70
2018-07-17T10:28:33.949Z,3.30
2018-07-17T10:31:02.256Z,2.70
2018-07-17T10:33:30.416Z,2.80
2018-07-17T10:35:58.319Z,2.70
2018-07-17T10:38:26.672Z,3.10
2018-07-17T10:40:55.075Z,2.80
2018-07-17T10:43:23.101Z,3.10
2018-07-17T10:45:51.621Z,3.23
2018-07-17T10:48:19.781Z,3.10
2018-07-17T10:50:47.956Z,2.70
2018-07-17T10:53:16.235Z,2.80
2018-07-17T10:55:44.404Z,2.90
2018-07-17T10:58:12.739Z,2.70
2018-07-17T11:00:40.756Z,2.80
2018-07-17T11:03:09.189Z,2.90
2018-07-17T11:05:37.194Z,2.47
2018-07-17T11:08:05.382Z,2.90
2018-07-17T11:10:33.484Z,2.72
2018-07-17T11:13:01.845Z,2.50
2018-07-17T11:15:29.753Z,2.90
2018-07-17T11:17:57.924Z,2.60
2018-07-17T11:20:26.172Z,2.40
2018-07-17T11:22:55.156Z,2.67
2018-07-17T11:25:23.241Z,2.60
2018-07-17T11:27:51.302Z,2.70
2018-07-17T11:30:19.222Z,2.50
2018-07-17T11:32:47.176Z,2.30
2018-07-17T11:35:15.146Z,2.50
2018-07-17T11:37:43.131Z,2.50
2018-07-17T11:40:11.116Z,3.02
2018-07-17T11:42:39.016Z,2.80
2018-07-17T11:45:07.385Z,2.80
2018-07-17T11:47:35.434Z,2.70
2018-07-17T11:50:03.689Z,2.27
2018-07-17T11:52:31.940Z,2.50
2018-07-17T11:54:59.881Z,2.70
2018-07-17T11:57:28.157Z,2.30
2018-07-17T11:59:56.584Z,2.30
2018-07-17T12:02:24.536Z,2.27
2018-07-17T12:04:52.912Z,2.40
2018-07-17T12:07:20.812Z,2.50
2018-07-17T12:09:48.783Z,2.30
2018-07-17T12:12:16.716Z,2.70
2018-07-17T12:14:45.376Z,2.72
2018-07-17T12:17:13.389Z,3.00
2018-07-17T12:19:41.342Z,3.00
2018-07-17T12:22:09.348Z,3.10
2018-07-17T12:24:37.468Z,2.60
2018-07-17T12:27:05.678Z,2.50
2018-07-17T12:29:33.608Z,2.40
2018-07-17T12:32:01.644Z,2.70
2018-07-17T12:34:29.922Z,2.60
2018-07-17T12:36:58.026Z,2.60
2018-07-17T12:39:25.998Z,2.50
2018-07-17T12:41:53.976Z,2.20
2018-07-17T12:44:21.995Z,2.17
2018-07-17T12:46:50.084Z,2.47
2018-07-17T12:49:18.072Z,2.30
2018-07-17T12:51:46.314Z,2.70
2018-07-17T12:54:14.298Z,2.30
2018-07-17T12:56:42.596Z,2.50
2018-07-17T12:59:10.492Z,2.80
2018-07-17T13:01:38.629Z,3.30
2018-07-17T13:04:07.127Z,2.60
2018-07-17T13:06:35.298Z,2.95
2018-07-17T13:09:04.809Z,2.70
2018-07-17T13:11:33.053Z,2.90
2018-07-17T13:14:01.772Z,2.40
2018-07-17T13:16:29.768Z,2.72
2018-07-17T13:18:57.721Z,3.20
2018-07-17T13:21:25.664Z,2.80
2018-07-17T13:23:54.631Z,3.10
2018-07-17T13:26:22.818Z,2.40
2018-07-17T13:28:50.980Z,2.60
2018-07-17T13:31:19.008Z,2.85
2018-07-17T13:33:48.004Z,2.90
2018-07-17T13:36:16.086Z,2.50
2018-07-17T13:38:44.061Z,2.80
2018-07-17T13:41:12.802Z,2.50
2018-07-17T13:43:41.203Z,3.13
2018-07-17T13:46:09.365Z,2.40
2018-07-17T13:48:37.537Z,2.50
2018-07-17T13:51:05.504Z,2.90
2018-07-17T13:53:33.690Z,2.60
2018-07-17T13:56:01.636Z,2.40
2018-07-17T13:58:30.448Z,2.50
2018-07-17T14:00:58.392Z,2.80
2018-07-17T14:03:26.931Z,2.40
2018-07-17T14:05:55.380Z,2.55
2018-07-17T14:08:23.601Z,2.70
2018-07-17T14:10:51.527Z,2.60
2018-07-17T14:13:19.592Z,2.35
2018-07-17T14:15:47.581Z,2.58
2018-07-17T14:18:16.560Z,2.50
2018-07-17T14:20:45.111Z,2.60
2018-07-17T14:23:13.318Z,2.72
2018-07-17T14:25:41.694Z,2.83
2018-07-17T14:28:10.014Z,3.00
2018-07-17T14:30:38.050Z,2.80
2018-07-17T14:33:06.060Z,2.90
2018-07-17T14:35:34.348Z,2.65
2018-07-17T14:40:36.959Z,2.50
2018-07-17T14:43:05.334Z,2.50
2018-07-17T14:45:33.389Z,2.22
2018-07-17T14:48:01.384Z,2.37
2018-07-17T14:50:29.589Z,2.40
2018-07-17T14:52:57.761Z,2.50
2018-07-17T14:55:25.690Z,2.33
2018-07-17T14:57:53.680Z,2.30
2018-07-17T15:00:21.893Z,2.50
2018-07-17T15:02:49.944Z,2.20
2018-07-17T15:07:09.981Z,2.10
2018-07-17T15:09:38.365Z,2.20
2018-07-17T15:12:07.004Z,2.20
2018-07-17T15:14:34.998Z,2.20
2018-07-17T15:17:02.953Z,2.12
2018-07-17T15:19:31.323Z,2.10
2018-07-17T15:21:59.273Z,2.50
2018-07-17T15:24:27.680Z,2.70
2018-07-17T15:26:55.600Z,2.08
2018-07-17T15:29:23.919Z,2.98
2018-07-17T15:31:52.751Z,2.30
2018-07-17T15:34:20.883Z,2.33
2018-07-17T15:36:48.837Z,3.20
2018-07-17T15:39:17.109Z,2.77
2018-07-17T15:41:45.353Z,2.22
2018-07-17T15:44:13.292Z,1.98
2018-07-17T15:46:42.016Z,2.10
2018-07-17T15:49:10.502Z,2.17
2018-07-17T15:51:38.987Z,2.13
2018-07-17T15:54:07.235Z,2.10
2018-07-17T15:56:35.164Z,2.20
2018-07-17T15:59:03.455Z,2.33
2018-07-17T16:01:31.989Z,2.20
2018-07-17T16:04:00.212Z,2.40
2018-07-17T16:06:28.477Z,2.90
2018-07-17T16:08:56.420Z,2.70
2018-07-17T16:11:24.678Z,2.87
2018-07-17T16:13:54.104Z,3.20
2018-07-17T16:16:22.159Z,3.02
2018-07-17T16:18:50.381Z,3.00
2018-07-17T16:21:18.470Z,2.80
2018-07-17T16:23:46.560Z,2.60
2018-07-17T16:26:15.112Z,2.72
2018-07-17T16:28:49.768Z,2.60
2018-07-17T16:31:28.072Z,2.00
2018-07-17T16:33:56.293Z,2.60
2018-07-17T16:36:24.533Z,2.10
2018-07-17T16:38:53.068Z,2.17
2018-07-17T16:41:22.074Z,1.60
2018-07-17T16:43:50.556Z,2.00
2018-07-17T16:46:18.785Z,1.57
2018-07-17T16:48:46.696Z,2.00
2018-07-17T16:51:16.345Z,1.60
2018-07-17T16:53:44.296Z,2.40
2018-07-17T16:56:12.221Z,2.30
2018-07-17T16:58:40.421Z,1.70
2018-07-17T17:01:08.691Z,2.30
2018-07-17T17:03:36.981Z,2.42
2018-07-17T17:06:05.239Z,1.87
2018-07-17T17:08:33.185Z,2.10
2018-07-17T17:11:01.814Z,2.20
2018-07-17T17:13:30.133Z,2.50
2018-07-17T17:15:58.240Z,2.47
2018-07-17T17:18:26.541Z,2.10
2018-07-17T17:20:54.922Z,2.02
2018-07-17T17:23:22.860Z,2.00
2018-07-17T17:25:51.060Z,1.60
2018-07-17T17:28:19.550Z,1.92
2018-07-17T17:30:47.489Z,1.70
2018-07-17T17:33:15.392Z,2.05
2018-07-17T17:35:43.386Z,1.60
2018-07-17T17:38:11.593Z,1.70
2018-07-17T17:40:40.071Z,1.30
2018-07-17T17:43:08.181Z,1.50
2018-07-17T17:45:36.426Z,1.70
2018-07-17T17:48:04.723Z,1.57
2018-07-17T17:50:34.035Z,1.80
2018-07-17T17:53:02.452Z,1.70
2018-07-17T17:55:30.449Z,1.90
2018-07-17T17:57:58.573Z,2.10
2018-07-17T18:00:26.504Z,1.80
2018-07-17T18:02:54.705Z,2.20
2018-07-17T18:05:23.185Z,1.85
2018-07-17T18:07:51.361Z,1.80
2018-07-17T18:10:19.321Z,2.00
2018-07-17T18:12:47.572Z,2.00
2018-07-17T18:15:15.776Z,2.00
2018-07-17T18:17:44.057Z,2.40
2018-07-17T18:20:12.536Z,2.37
2018-07-17T18:22:40.541Z,2.98
2018-07-17T18:25:08.836Z,2.90
2018-07-17T18:27:37.373Z,3.50
2018-07-17T18:30:05.324Z,3.00
2018-07-17T18:32:33.512Z,3.12
2018-07-17T18:35:01.433Z,3.60
2018-07-17T18:37:29.960Z,3.95
2018-07-17T18:39:58.546Z,6.62
2018-07-17T18:42:26.798Z,18.32
2018-07-17T18:44:54.760Z,14.23
2018-07-17T18:47:22.968Z,6.90
2018-07-17T18:50:12.000Z,3.77
2018-07-17T18:52:19.624Z,4.03
2018-07-17T18:54:47.905Z,4.17
2018-07-17T18:57:16.086Z,5.63
2018-07-17T18:59:44.403Z,13.70
2018-07-17T19:02:12.637Z,9.65
2018-07-17T19:04:41.008Z,5.78
2018-07-17T19:07:09.282Z,4.80
2018-07-17T19:09:37.972Z,4.28
2018-07-17T19:12:06.427Z,4.40
2018-07-17T19:14:34.385Z,4.78
2018-07-17T19:17:02.296Z,5.40
2018-07-17T19:19:30.526Z,5.58
2018-07-17T19:21:58.740Z,7.17
2018-07-17T19:24:26.733Z,7.85
2018-07-17T19:26:54.958Z,6.70
2018-07-17T19:29:22.890Z,6.47
2018-07-17T19:31:50.888Z,5.20
2018-07-17T19:34:19.119Z,4.37
2018-07-17T19:36:47.553Z,4.23
2018-07-17T19:39:15.757Z,4.58
2018-07-17T19:41:44.764Z,5.90
2018-07-17T19:44:13.033Z,5.30
2018-07-17T19:46:41.604Z,4.60
2018-07-17T19:49:10.548Z,8.03
2018-07-17T19:51:38.473Z,5.30
2018-07-17T19:54:06.764Z,6.37
2018-07-17T19:56:34.689Z,4.65
2018-07-17T19:59:03.372Z,5.10
2018-07-17T20:01:31.688Z,4.70
2018-07-17T20:04:00.353Z,4.10
2018-07-17T20:06:28.649Z,4.30
2018-07-17T20:08:56.917Z,4.50
2018-07-17T20:11:24.909Z,4.67
2018-07-17T20:13:53.127Z,4.80
2018-07-17T20:16:21.957Z,4.25
2018-07-17T20:18:50.449Z,4.30
2018-07-17T20:21:18.720Z,4.50
2018-07-17T20:23:46.943Z,4.10
2018-07-17T20:26:15.193Z,4.42
2018-07-17T20:28:43.653Z,4.80
2018-07-17T20:31:12.226Z,4.60
2018-07-17T20:33:40.111Z,4.83
2018-07-17T20:36:08.603Z,4.80
2018-07-17T20:38:36.854Z,4.80
2018-07-17T20:41:05.340Z,4.72
2018-07-17T20:43:33.284Z,5.37
2018-07-17T20:46:01.266Z,4.72
2018-07-17T20:48:29.379Z,5.00
2018-07-17T20:50:57.336Z,4.90
2018-07-17T20:53:25.668Z,4.70
2018-07-17T20:55:53.925Z,5.00
2018-07-17T20:58:21.921Z,5.03
2018-07-17T21:00:50.049Z,5.30
2018-07-17T21:03:19.155Z,4.60
2018-07-17T21:05:47.301Z,4.83
2018-07-17T21:08:15.701Z,5.10
2018-07-17T21:10:43.849Z,5.10
2018-07-17T21:13:12.035Z,4.85
2018-07-17T21:15:40.189Z,5.10
2018-07-17T21:18:08.380Z,4.80
2018-07-17T21:20:36.835Z,5.15
2018-07-17T21:23:05.352Z,5.08
2018-07-17T21:25:33.309Z,5.47
2018-07-17T21:28:01.792Z,4.80
2018-07-17T21:30:29.776Z,5.70
2018-07-17T21:32:58.214Z,5.50
2018-07-17T21:35:26.289Z,5.45
2018-07-17T21:37:54.546Z,5.28
2018-07-17T21:40:23.183Z,5.55
2018-07-17T21:42:51.491Z,5.60
2018-07-17T21:45:19.943Z,5.28
2018-07-17T21:47:58.802Z,5.70
2018-07-17T21:50:33.465Z,5.10
2018-07-17T21:53:01.682Z,5.50
2018-07-17T21:55:29.916Z,5.60
2018-07-17T21:57:58.188Z,5.72
2018-07-17T22:00:27.107Z,5.30
2018-07-17T22:02:55.573Z,5.90
2018-07-17T22:05:24.198Z,5.67
2018-07-17T22:07:52.553Z,5.40
2018-07-17T22:10:20.771Z,5.60
2018-07-17T22:12:48.661Z,5.40
2018-07-17T22:15:16.889Z,5.30
2018-07-17T22:17:44.936Z,5.70
2018-07-17T22:20:12.832Z,5.92
2018-07-17T22:22:40.724Z,5.90
2018-07-17T22:25:08.639Z,5.55
2018-07-17T22:27:36.521Z,5.80
2018-07-17T22:30:04.753Z,6.00
2018-07-17T22:32:32.649Z,6.75
2018-07-17T22:35:00.556Z,6.13
2018-07-17T22:37:28.820Z,5.62
2018-07-17T22:39:57.328Z,5.72
2018-07-17T22:42:25.516Z,5.77
2018-07-17T22:44:53.936Z,6.70
2018-07-17T22:47:22.076Z,5.85
2018-07-17T22:49:50.253Z,5.83
2018-07-17T22:52:18.143Z,5.63
2018-07-17T22:54:46.048Z,5.80
2018-07-17T22:57:13.949Z,5.80
2018-07-17T22:59:42.132Z,5.90
2018-07-17T23:02:10.864Z,6.30
2018-07-17T23:04:39.083Z,6.00
2018-07-17T23:07:10.185Z,5.85
2018-07-17T23:09:38.644Z,5.80
2018-07-17T23:12:07.116Z,6.08
2018-07-17T23:14:34.990Z,6.00
2018-07-17T23:17:03.165Z,5.70
2018-07-17T23:19:31.303Z,5.67
2018-07-17T23:21:59.468Z,5.92
2018-07-17T23:24:27.693Z,5.85
2018-07-17T23:26:55.581Z,5.80
2018-07-17T23:29:24.041Z,5.83
2018-07-17T23:31:51.940Z,5.70
2018-07-17T23:34:19.836Z,5.50
2018-07-17T23:36:48.057Z,5.70
2018-07-17T23:39:16.227Z,5.95
2018-07-17T23:41:44.108Z,5.72
2018-07-17T23:44:12.029Z,5.40
2018-07-17T23:46:39.921Z,5.50
2018-07-17T23:49:08.108Z,5.80
2018-07-17T23:51:36.284Z,6.00
2018-07-17T23:54:04.453Z,5.67
2018-07-17T23:56:32.367Z,6.40
2018-07-17T23:59:00.804Z,5.25
